createdAt,value
2023-11-17T00:00:13.675Z,9.91
2023-11-17T00:02:41.674Z,9.91
2023-11-17T00:05:08.975Z,9.90
2023-11-17T00:07:36.012Z,9.90
2023-11-17T00:10:03.823Z,9.90
2023-11-17T00:12:30.979Z,9.91
2023-11-17T00:14:57.882Z,9.92
2023-11-17T00:17:25.058Z,9.93
2023-11-17T00:19:52.506Z,9.92
2023-11-17T00:22:21.625Z,9.92
2023-11-17T00:24:48.792Z,9.93
2023-11-17T00:27:16.088Z,9.94
2023-11-17T00:29:43.069Z,9.94
2023-11-17T00:32:10.026Z,9.95
2023-11-17T00:34:37.107Z,9.95
2023-11-17T00:37:08.887Z,9.98
2023-11-17T00:39:38.178Z,9.97
2023-11-17T00:42:05.389Z,9.97
2023-11-17T00:44:32.526Z,10.00
2023-11-17T00:47:00.750Z,10.00
2023-11-17T00:49:28.096Z,10.00
2023-11-17T00:51:55.409Z,10.01
2023-11-17T00:54:27.307Z,10.00
2023-11-17T00:56:55.785Z,10.02
2023-11-17T00:59:23.412Z,10.06
2023-11-17T01:01:50.631Z,10.08
2023-11-17T01:04:18.359Z,10.09
2023-11-17T01:06:45.795Z,10.11
2023-11-17T01:09:13.626Z,10.12
2023-11-17T01:11:40.993Z,10.07
2023-11-17T01:14:09.821Z,10.15
2023-11-17T01:16:37.106Z,10.16
2023-11-17T01:19:04.275Z,10.17
2023-11-17T01:21:32.443Z,10.17
2023-11-17T01:24:02.570Z,10.16
2023-11-17T01:26:30.935Z,10.16
2023-11-17T01:28:58.198Z,10.14
2023-11-17T01:31:25.693Z,10.19
2023-11-17T01:33:52.661Z,10.18
2023-11-17T01:36:21.519Z,10.18
2023-11-17T01:38:53.275Z,10.16
2023-11-17T01:41:22.547Z,10.16
2023-11-17T01:43:49.895Z,10.15
2023-11-17T01:46:18.952Z,10.14
2023-11-17T01:48:45.942Z,10.12
2023-11-17T01:51:13.638Z,10.12
2023-11-17T01:53:41.258Z,10.11
2023-11-17T01:56:08.419Z,10.10
2023-11-17T01:58:35.517Z,10.10
2023-11-17T02:01:02.899Z,10.12
2023-11-17T02:03:30.534Z,10.14
2023-11-17T02:06:43.592Z,10.13
2023-11-17T02:09:35.802Z,10.13
2023-11-17T02:12:28.399Z,10.12
2023-11-17T02:15:02.254Z,10.12
2023-11-17T02:17:30.333Z,10.12
2023-11-17T02:20:13.193Z,10.11
2023-11-17T02:22:49.098Z,10.11
2023-11-17T02:25:34.065Z,10.11
2023-11-17T02:28:21.660Z,10.12
2023-11-17T02:30:57.319Z,10.11
2023-11-17T02:33:28.521Z,10.06
2023-11-17T02:35:58.538Z,10.11
2023-11-17T02:38:25.499Z,10.12
2023-11-17T02:40:57.432Z,10.12
2023-11-17T02:43:30.727Z,10.13
2023-11-17T02:46:01.702Z,10.14
2023-11-17T02:48:30.922Z,10.15
2023-11-17T02:51:19.745Z,10.15
2023-11-17T02:53:51.096Z,10.16
2023-11-17T02:56:22.959Z,10.15
2023-11-17T02:58:55.563Z,10.14
2023-11-17T03:01:24.785Z,10.16
2023-11-17T03:03:52.379Z,10.13
2023-11-17T03:06:19.369Z,10.17
2023-11-17T03:08:48.896Z,10.18
2023-11-17T03:11:22.195Z,10.18
2023-11-17T03:13:52.498Z,10.16
2023-11-17T03:16:25.114Z,10.17
2023-11-17T03:18:53.646Z,10.19
2023-11-17T03:21:24.463Z,10.18
2023-11-17T03:23:52.034Z,10.19
2023-11-17T03:26:20.427Z,10.12
2023-11-17T03:28:47.357Z,10.17
2023-11-17T03:31:15.657Z,10.13
2023-11-17T03:33:44.862Z,10.14
2023-11-17T03:36:20.432Z,10.21
2023-11-17T03:38:47.762Z,10.21
2023-11-17T03:41:19.632Z,10.21
2023-11-17T03:43:46.844Z,10.21
2023-11-17T03:46:14.679Z,10.19
2023-11-17T03:48:41.691Z,10.20
2023-11-17T03:51:09.798Z,10.19
2023-11-17T03:53:37.128Z,10.19
2023-11-17T03:56:05.216Z,10.15
2023-11-17T03:58:32.150Z,10.17
2023-11-17T04:00:59.137Z,10.19
2023-11-17T04:03:26.132Z,10.19
2023-11-17T04:05:54.505Z,10.21
2023-11-17T04:08:21.475Z,10.22
2023-11-17T04:10:48.434Z,10.20
2023-11-17T04:13:15.674Z,10.21
2023-11-17T04:15:42.616Z,10.22
2023-11-17T04:18:11.264Z,10.22
2023-11-17T04:20:38.201Z,10.24
2023-11-17T04:23:05.136Z,10.26
2023-11-17T04:25:32.081Z,10.27
2023-11-17T04:27:59.451Z,10.27
2023-11-17T04:30:26.615Z,10.29
2023-11-17T04:32:53.608Z,10.30
2023-11-17T04:35:20.570Z,10.31
2023-11-17T04:37:47.693Z,10.34
2023-11-17T04:40:17.233Z,10.34
2023-11-17T04:42:44.869Z,10.34
2023-11-17T04:45:11.833Z,10.36
2023-11-17T04:47:38.828Z,10.37
2023-11-17T04:50:10.072Z,10.37
2023-11-17T04:52:37.233Z,10.37
2023-11-17T04:55:06.838Z,10.37
2023-11-17T04:57:35.519Z,10.40
2023-11-17T05:00:05.377Z,10.41
2023-11-17T05:02:34.296Z,10.40
2023-11-17T05:05:01.956Z,10.40
2023-11-17T05:07:29.034Z,10.41
2023-11-17T05:09:56.129Z,10.41
2023-11-17T05:12:23.325Z,10.42
2023-11-17T05:14:51.273Z,10.44
2023-11-17T05:17:18.302Z,10.45
2023-11-17T05:19:46.605Z,10.44
2023-11-17T05:22:13.746Z,10.43
2023-11-17T05:24:40.692Z,10.45
2023-11-17T05:27:07.998Z,10.45
2023-11-17T05:29:34.965Z,10.46
2023-11-17T05:32:02.072Z,10.46
2023-11-17T05:34:29.828Z,10.48
2023-11-17T05:36:56.815Z,10.46
2023-11-17T05:39:24.799Z,10.47
2023-11-17T05:41:53.001Z,10.41
2023-11-17T05:44:20.283Z,10.43
2023-11-17T05:46:47.386Z,10.44
2023-11-17T05:49:14.449Z,10.42
2023-11-17T05:51:41.504Z,10.39
2023-11-17T05:54:08.404Z,10.38
2023-11-17T05:56:35.320Z,10.39
2023-11-17T05:59:02.260Z,10.38
2023-11-17T06:01:30.513Z,10.37
2023-11-17T06:03:57.799Z,10.30
2023-11-17T06:06:24.814Z,10.35
2023-11-17T06:08:51.715Z,10.36
2023-11-17T06:11:26.142Z,10.31
2023-11-17T06:13:53.058Z,10.31
2023-11-17T06:16:22.822Z,10.34
2023-11-17T06:18:50.992Z,10.33
2023-11-17T06:21:18.023Z,10.31
2023-11-17T06:23:45.111Z,10.30
2023-11-17T06:26:12.059Z,10.28
2023-11-17T06:28:39.384Z,10.23
2023-11-17T06:31:07.596Z,10.20
2023-11-17T06:33:34.946Z,10.15
2023-11-17T06:36:04.870Z,10.10
2023-11-17T06:38:33.039Z,10.12
2023-11-17T06:41:00.645Z,10.13
2023-11-17T06:43:28.677Z,10.11
2023-11-17T06:45:55.696Z,10.14
2023-11-17T06:48:24.274Z,10.16
2023-11-17T06:50:51.224Z,10.16
2023-11-17T06:53:20.116Z,10.15
2023-11-17T06:55:47.072Z,10.12
2023-11-17T06:58:14.040Z,10.16
2023-11-17T07:00:41.949Z,10.16
2023-11-17T07:03:08.912Z,10.16
2023-11-17T07:05:36.081Z,10.17
2023-11-17T07:08:03.041Z,10.16
2023-11-17T07:10:30.428Z,10.19
2023-11-17T07:12:57.641Z,10.19
2023-11-17T07:15:26.052Z,10.19
2023-11-17T07:17:55.013Z,10.21
2023-11-17T07:20:23.358Z,10.21
2023-11-17T07:22:50.502Z,10.22
2023-11-17T07:25:18.326Z,10.25
2023-11-17T07:27:45.699Z,10.26
2023-11-17T07:30:15.854Z,10.28
2023-11-17T07:32:46.392Z,10.29
2023-11-17T07:35:13.430Z,10.33
2023-11-17T07:37:40.411Z,10.33
2023-11-17T07:40:10.419Z,10.35
2023-11-17T07:42:40.630Z,10.38
2023-11-17T07:45:08.840Z,10.42
2023-11-17T07:47:37.761Z,10.45
2023-11-17T07:50:08.403Z,10.37
2023-11-17T07:52:36.158Z,10.45
2023-11-17T07:55:03.602Z,10.46
2023-11-17T07:57:31.309Z,10.47
2023-11-17T07:59:59.048Z,10.48
2023-11-17T08:02:25.978Z,10.51
2023-11-17T08:04:52.961Z,10.50
2023-11-17T08:07:19.984Z,10.57
2023-11-17T08:09:47.020Z,10.54
2023-11-17T08:12:14.688Z,10.57
2023-11-17T08:14:41.608Z,10.62
2023-11-17T08:17:08.858Z,10.62
2023-11-17T08:19:36.496Z,10.59
2023-11-17T08:22:04.865Z,10.61
2023-11-17T08:24:32.447Z,10.60
2023-11-17T08:26:59.386Z,10.64
2023-11-17T08:29:27.108Z,10.67
2023-11-17T08:31:55.705Z,10.66
2023-11-17T08:34:23.090Z,10.73
2023-11-17T08:36:50.612Z,10.77
2023-11-17T08:39:27.193Z,10.78
2023-11-17T08:41:56.143Z,10.81
2023-11-17T08:44:24.116Z,10.84
2023-11-17T08:46:52.374Z,10.84
2023-11-17T08:49:19.593Z,10.86
2023-11-17T08:51:48.229Z,10.82
2023-11-17T08:54:16.197Z,10.82
2023-11-17T08:56:44.225Z,10.80
2023-11-17T08:59:11.433Z,10.79
2023-11-17T09:01:38.705Z,10.77
2023-11-17T09:04:05.891Z,10.72
2023-11-17T09:06:34.702Z,10.76
2023-11-17T09:09:16.086Z,10.74
2023-11-17T09:11:51.081Z,10.72
2023-11-17T09:14:18.700Z,10.68
2023-11-17T09:16:49.817Z,10.67
2023-11-17T09:19:17.584Z,10.62
2023-11-17T09:21:44.681Z,10.60
2023-11-17T09:24:11.605Z,10.62
2023-11-17T09:26:38.489Z,10.63
2023-11-17T09:29:05.418Z,10.63
2023-11-17T09:31:32.623Z,10.66
2023-11-17T09:33:59.683Z,10.66
2023-11-17T09:36:27.287Z,10.66
2023-11-17T09:38:56.205Z,10.62
2023-11-17T09:41:24.325Z,10.62
2023-11-17T09:43:58.866Z,10.72
2023-11-17T09:46:29.101Z,10.75
2023-11-17T09:49:02.045Z,10.76
2023-11-17T09:51:29.678Z,10.79
2023-11-17T09:53:59.243Z,10.81
2023-11-17T09:56:27.569Z,10.83
2023-11-17T09:58:55.080Z,10.88
2023-11-17T10:01:28.882Z,10.91
2023-11-17T10:04:00.360Z,10.94
2023-11-17T10:06:29.683Z,10.90
2023-11-17T10:08:59.255Z,10.99
2023-11-17T10:11:27.375Z,11.00
2023-11-17T10:13:57.602Z,11.02
2023-11-17T10:16:25.063Z,11.03
2023-11-17T10:18:53.294Z,11.03
2023-11-17T10:21:20.538Z,11.10
2023-11-17T10:23:52.172Z,11.11
2023-11-17T10:26:21.187Z,11.12
2023-11-17T10:28:48.807Z,11.14
2023-11-17T10:31:17.860Z,11.10
2023-11-17T10:33:46.740Z,11.05
2023-11-17T10:36:17.268Z,10.99
2023-11-17T10:38:47.152Z,10.94
2023-11-17T10:41:31.247Z,10.92
2023-11-17T10:44:00.228Z,10.87
2023-11-17T10:46:37.188Z,10.94
2023-11-17T10:49:06.215Z,10.94
2023-11-17T10:51:35.761Z,10.98
2023-11-17T10:54:07.030Z,11.03
2023-11-17T10:56:35.753Z,11.07
2023-11-17T10:59:04.024Z,11.12
2023-11-17T11:01:32.772Z,11.16
2023-11-17T11:04:00.660Z,11.19
2023-11-17T11:06:28.626Z,11.23
2023-11-17T11:08:59.446Z,11.28
2023-11-17T11:11:27.868Z,11.35
2023-11-17T11:13:55.998Z,11.40
2023-11-17T11:16:25.545Z,11.46
2023-11-17T11:18:59.434Z,11.56
2023-11-17T11:21:31.356Z,11.62
2023-11-17T11:24:02.223Z,11.65
2023-11-17T11:26:30.969Z,11.71
2023-11-17T11:29:00.116Z,11.78
2023-11-17T11:31:27.339Z,11.81
2023-11-17T11:33:54.342Z,11.79
2023-11-17T11:36:21.391Z,11.73
2023-11-17T11:38:48.846Z,11.76
2023-11-17T11:41:18.478Z,11.76
2023-11-17T11:43:46.822Z,11.74
2023-11-17T11:46:19.382Z,11.72
2023-11-17T11:48:54.036Z,11.74
2023-11-17T11:51:24.745Z,11.72
2023-11-17T11:54:08.665Z,11.72
2023-11-17T11:56:41.540Z,11.74
2023-11-17T11:59:09.319Z,11.76
2023-11-17T12:01:37.573Z,11.77
2023-11-17T12:04:07.353Z,11.83
2023-11-17T12:06:39.588Z,11.87
2023-11-17T12:09:21.101Z,11.91
2023-11-17T12:11:52.939Z,11.91
2023-11-17T12:14:27.620Z,11.89
2023-11-17T12:16:56.928Z,11.91
2023-11-17T12:19:28.771Z,11.93
2023-11-17T12:21:59.881Z,11.94
2023-11-17T12:24:28.188Z,11.91
2023-11-17T12:26:56.990Z,11.80
2023-11-17T12:29:33.304Z,11.69
2023-11-17T12:32:09.957Z,11.61
2023-11-17T12:34:43.510Z,11.59
2023-11-17T12:37:11.527Z,11.67
2023-11-17T12:39:41.286Z,11.72
2023-11-17T12:42:21.966Z,11.77
2023-11-17T12:44:49.206Z,11.82
2023-11-17T12:47:25.454Z,11.84
2023-11-17T12:49:57.583Z,11.80
2023-11-17T12:52:24.917Z,11.77
2023-11-17T12:55:09.959Z,11.72
2023-11-17T12:57:38.233Z,11.68
2023-11-17T13:00:17.699Z,11.67
2023-11-17T13:02:45.218Z,11.65
2023-11-17T13:05:13.374Z,11.63
2023-11-17T13:07:40.812Z,11.61
2023-11-17T13:10:12.336Z,11.56
2023-11-17T13:12:40.651Z,11.52
2023-11-17T13:15:11.194Z,11.55
2023-11-17T13:17:38.272Z,11.52
2023-11-17T13:20:13.611Z,11.48
2023-11-17T13:22:44.392Z,11.47
2023-11-17T13:25:12.860Z,11.47
2023-11-17T13:27:46.258Z,11.48
2023-11-17T13:30:18.719Z,11.50
2023-11-17T13:33:02.848Z,11.54
2023-11-17T13:35:31.706Z,11.53
2023-11-17T13:38:05.258Z,11.45
2023-11-17T13:40:35.255Z,11.45
2023-11-17T13:43:12.707Z,11.45
2023-11-17T13:45:40.818Z,11.49
2023-11-17T13:48:11.784Z,11.49
2023-11-17T13:50:53.278Z,11.49
2023-11-17T13:53:23.127Z,11.50
2023-11-17T13:55:53.501Z,11.54
2023-11-17T13:58:21.396Z,11.54
2023-11-17T14:00:49.010Z,11.52
2023-11-17T14:03:16.055Z,11.48
2023-11-17T14:05:43.596Z,11.43
2023-11-17T14:08:13.423Z,11.40
2023-11-17T14:10:40.368Z,11.36
2023-11-17T14:13:07.333Z,11.32
2023-11-17T14:15:41.056Z,11.28
2023-11-17T14:18:12.666Z,11.25
2023-11-17T14:20:41.748Z,11.23
2023-11-17T14:23:08.680Z,11.13
2023-11-17T14:25:37.623Z,11.22
2023-11-17T14:28:04.806Z,11.22
2023-11-17T14:30:31.890Z,11.17
2023-11-17T14:33:00.249Z,11.23
2023-11-17T14:35:27.376Z,11.24
2023-11-17T14:37:54.311Z,11.23
2023-11-17T14:40:21.345Z,11.22
2023-11-17T14:42:48.309Z,11.22
2023-11-17T14:45:17.491Z,11.23
2023-11-17T14:47:47.465Z,11.24
2023-11-17T14:50:15.387Z,11.25
2023-11-17T14:52:44.099Z,11.24
2023-11-17T14:55:11.977Z,11.24
2023-11-17T14:57:39.871Z,11.19
2023-11-17T15:00:20.986Z,11.24
2023-11-17T15:02:49.398Z,11.22
2023-11-17T15:05:22.269Z,11.21
2023-11-17T15:07:50.421Z,11.16
2023-11-17T15:10:19.654Z,11.12
2023-11-17T15:12:48.575Z,11.11
2023-11-17T15:15:30.900Z,11.08
2023-11-17T15:17:59.778Z,11.05
2023-11-17T15:20:29.600Z,11.02
2023-11-17T15:22:57.019Z,11.01
2023-11-17T15:25:32.726Z,10.99
2023-11-17T15:27:59.633Z,10.96
2023-11-17T15:30:28.165Z,10.93
2023-11-17T15:32:55.353Z,10.91
2023-11-17T15:35:24.922Z,10.89
2023-11-17T15:37:52.205Z,10.87
2023-11-17T15:40:22.859Z,10.85
2023-11-17T15:42:49.991Z,11.02
2023-11-17T15:45:23.919Z,10.92
2023-11-17T15:47:50.946Z,10.88
2023-11-17T15:50:20.037Z,10.83
2023-11-17T15:52:47.085Z,10.78
2023-11-17T15:55:17.422Z,10.72
2023-11-17T15:57:45.934Z,10.66
2023-11-17T16:00:24.796Z,10.62
2023-11-17T16:02:53.222Z,10.57
2023-11-17T16:05:22.711Z,10.55
2023-11-17T16:07:52.277Z,10.47
2023-11-17T16:10:22.481Z,10.53
2023-11-17T16:12:54.911Z,10.52
2023-11-17T16:15:23.040Z,10.49
2023-11-17T16:17:55.450Z,10.49
2023-11-17T16:20:27.157Z,10.46
2023-11-17T16:22:55.040Z,10.45
2023-11-17T16:25:22.577Z,10.42
2023-11-17T16:27:50.954Z,10.40
2023-11-17T16:30:22.056Z,10.35
2023-11-17T16:32:56.026Z,10.36
2023-11-17T16:35:28.532Z,10.31
2023-11-17T16:37:55.958Z,10.32
2023-11-17T16:40:28.799Z,10.29
2023-11-17T16:43:08.791Z,10.25
2023-11-17T16:45:44.350Z,10.16
2023-11-17T16:48:11.501Z,10.15
2023-11-17T16:50:43.548Z,10.09
2023-11-17T16:53:15.317Z,10.11
2023-11-17T16:55:44.234Z,10.07
2023-11-17T16:58:13.232Z,10.04
2023-11-17T17:00:41.716Z,10.01
2023-11-17T17:03:09.021Z,9.93
2023-11-17T17:05:37.123Z,9.93
2023-11-17T17:08:07.977Z,9.90
2023-11-17T17:10:36.526Z,9.87
2023-11-17T17:13:04.544Z,9.84
2023-11-17T17:15:34.087Z,9.82
2023-11-17T17:18:08.144Z,9.80
2023-11-17T17:20:41.733Z,9.79
2023-11-17T17:23:13.784Z,9.76
2023-11-17T17:25:41.785Z,9.74
2023-11-17T17:28:13.910Z,9.78
2023-11-17T17:30:42.721Z,9.79
2023-11-17T17:33:11.913Z,9.76
2023-11-17T17:35:44.548Z,9.76
2023-11-17T17:38:13.178Z,9.73
2023-11-17T17:40:41.764Z,9.72
2023-11-17T17:43:10.877Z,9.68
2023-11-17T17:45:38.615Z,9.62
2023-11-17T17:48:08.566Z,9.59
2023-11-17T17:50:36.260Z,9.55
2023-11-17T17:53:03.280Z,9.49
2023-11-17T17:55:30.406Z,9.41
2023-11-17T17:57:58.015Z,9.41
2023-11-17T18:00:26.347Z,9.35
2023-11-17T18:02:59.392Z,9.35
2023-11-17T18:05:28.303Z,9.32
2023-11-17T18:07:56.108Z,9.28
2023-11-17T18:10:23.414Z,9.19
2023-11-17T18:12:52.021Z,9.20
2023-11-17T18:15:22.574Z,9.16
2023-11-17T18:17:53.133Z,9.20
2023-11-17T18:20:24.144Z,9.17
2023-11-17T18:22:53.448Z,9.15
2023-11-17T18:25:22.024Z,9.13
2023-11-17T18:27:50.805Z,9.11
2023-11-17T18:30:19.713Z,9.10
2023-11-17T18:32:47.476Z,9.08
2023-11-17T18:35:16.935Z,9.07
2023-11-17T18:37:49.134Z,9.07
2023-11-17T18:40:26.057Z,9.04
2023-11-17T18:42:53.838Z,9.10
2023-11-17T18:45:21.508Z,9.08
2023-11-17T18:47:49.272Z,9.16
2023-11-17T18:50:16.492Z,9.16
2023-11-17T18:52:44.130Z,9.07
2023-11-17T18:55:14.457Z,9.28
2023-11-17T18:57:41.929Z,9.29
2023-11-17T19:00:12.595Z,9.28
2023-11-17T19:02:40.759Z,9.40
2023-11-17T19:05:10.722Z,9.43
2023-11-17T19:07:38.596Z,9.39
2023-11-17T19:10:09.805Z,9.43
2023-11-17T19:12:36.933Z,9.42
2023-11-17T19:15:07.872Z,9.41
2023-11-17T19:17:39.273Z,9.40
2023-11-17T19:20:13.576Z,9.38
2023-11-17T19:22:41.746Z,9.38
2023-11-17T19:25:09.651Z,9.34
2023-11-17T19:27:37.846Z,9.34
2023-11-17T19:30:13.806Z,9.33
2023-11-17T19:32:46.832Z,9.29
2023-11-17T19:35:15.519Z,9.27
2023-11-17T19:37:43.963Z,9.19
2023-11-17T19:40:13.369Z,9.23
2023-11-17T19:42:42.921Z,9.19
2023-11-17T19:45:17.203Z,9.18
2023-11-17T19:47:48.023Z,9.16
2023-11-17T19:50:18.601Z,9.13
2023-11-17T19:52:48.252Z,9.07
2023-11-17T19:55:16.313Z,9.03
2023-11-17T19:57:48.219Z,9.01
2023-11-17T20:00:24.271Z,8.94
2023-11-17T20:02:52.755Z,8.95
2023-11-17T20:05:23.181Z,8.93
2023-11-17T20:07:51.067Z,8.91
2023-11-17T20:10:18.191Z,8.90
2023-11-17T20:12:46.165Z,8.90
2023-11-17T20:15:16.520Z,8.82
2023-11-17T20:17:55.225Z,8.85
2023-11-17T20:20:25.826Z,8.83
2023-11-17T20:22:53.052Z,8.84
2023-11-17T20:25:24.509Z,8.80
2023-11-17T20:27:52.633Z,8.84
2023-11-17T20:30:23.478Z,8.85
2023-11-17T20:32:53.730Z,8.87
2023-11-17T20:35:24.739Z,8.90
2023-11-17T20:37:52.710Z,8.90
2023-11-17T20:40:19.940Z,8.94
2023-11-17T20:42:48.767Z,8.92
2023-11-17T20:45:16.774Z,8.96
2023-11-17T20:47:45.576Z,8.96
2023-11-17T20:50:22.898Z,8.97
2023-11-17T20:52:52.415Z,8.91
2023-11-17T20:55:20.971Z,8.97
2023-11-17T20:57:50.547Z,8.96
2023-11-17T21:00:24.668Z,8.95
2023-11-17T21:02:57.353Z,8.93
2023-11-17T21:05:25.456Z,8.91
2023-11-17T21:07:54.818Z,8.87
2023-11-17T21:10:27.915Z,8.85
2023-11-17T21:12:56.526Z,8.84
2023-11-17T21:15:24.547Z,8.78
2023-11-17T21:17:54.646Z,8.82
2023-11-17T21:20:22.181Z,8.81
2023-11-17T21:22:50.033Z,8.79
2023-11-17T21:25:19.502Z,8.78
2023-11-17T21:27:48.541Z,8.75
2023-11-17T21:30:16.707Z,8.72
2023-11-17T21:32:48.513Z,8.64
2023-11-17T21:35:18.655Z,8.67
2023-11-17T21:37:46.350Z,8.64
2023-11-17T21:40:17.019Z,8.61
2023-11-17T21:42:45.949Z,8.59
2023-11-17T21:45:23.221Z,8.55
2023-11-17T21:47:57.333Z,8.50
2023-11-17T21:50:26.141Z,8.52
2023-11-17T21:52:56.553Z,8.46
2023-11-17T21:55:23.874Z,8.46
2023-11-17T21:57:50.870Z,8.43
2023-11-17T22:00:19.479Z,8.38
2023-11-17T22:02:49.474Z,8.35
2023-11-17T22:05:19.029Z,8.30
2023-11-17T22:07:48.456Z,8.30
2023-11-17T22:10:15.648Z,8.28
2023-11-17T22:12:46.530Z,8.25
2023-11-17T22:15:13.983Z,8.22
2023-11-17T22:17:44.046Z,8.15
2023-11-17T22:20:16.530Z,8.19
2023-11-17T22:22:45.591Z,8.17
2023-11-17T22:25:13.874Z,8.14
2023-11-17T22:27:44.547Z,8.09
2023-11-17T22:30:20.762Z,8.14
2023-11-17T22:32:49.515Z,8.17
2023-11-17T22:35:18.511Z,8.19
2023-11-17T22:37:54.598Z,8.24
2023-11-17T22:40:23.659Z,8.25
2023-11-17T22:42:52.606Z,8.25
2023-11-17T22:45:19.741Z,8.27
2023-11-17T22:47:47.584Z,8.28
2023-11-17T22:50:17.937Z,8.29
2023-11-17T22:52:46.209Z,8.30
2023-11-17T22:55:13.496Z,8.30
2023-11-17T22:57:40.981Z,8.30
2023-11-17T23:00:37.766Z,8.29
2023-11-17T23:03:08.582Z,8.26
2023-11-17T23:05:42.466Z,8.22
2023-11-17T23:08:12.763Z,8.22
2023-11-17T23:10:39.734Z,8.20
2023-11-17T23:13:08.179Z,8.19
2023-11-17T23:15:35.180Z,8.17
2023-11-17T23:18:02.697Z,8.17
2023-11-17T23:20:30.350Z,8.14
2023-11-17T23:22:58.145Z,8.11
2023-11-17T23:25:26.300Z,8.08
2023-11-17T23:27:53.579Z,8.08
2023-11-17T23:30:20.652Z,8.05
2023-11-17T23:32:48.494Z,8.02
2023-11-17T23:35:15.720Z,7.93
2023-11-17T23:37:42.686Z,7.99
2023-11-17T23:40:17.134Z,7.94
2023-11-17T23:42:48.908Z,8.00
2023-11-17T23:45:17.605Z,8.04
2023-11-17T23:47:44.862Z,8.06
2023-11-17T23:50:12.577Z,8.09
2023-11-17T23:52:39.541Z,8.13
2023-11-17T23:55:07.206Z,8.15
2023-11-17T23:57:34.158Z,8.18
